createdAt,value
2019-01-02T00:00:21.328Z,4.87
2019-01-02T00:02:50.055Z,5.15
2019-01-02T00:05:18.804Z,4.60
2019-01-02T00:07:47.543Z,5.58
2019-01-02T00:10:16.299Z,4.10
2019-01-02T00:12:45.119Z,4.42
2019-01-02T00:15:14.183Z,4.28
2019-01-02T00:17:42.936Z,4.45
2019-01-02T00:20:14.976Z,3.92
2019-01-02T00:22:43.724Z,4.10
2019-01-02T00:25:12.548Z,6.05
2019-01-02T00:27:41.307Z,4.42
2019-01-02T00:30:10.612Z,4.55
2019-01-02T00:32:39.563Z,3.60
2019-01-02T00:35:08.788Z,4.65
2019-01-02T00:37:37.942Z,3.52
2019-01-02T00:40:09.831Z,4.58
2019-01-02T00:42:38.982Z,4.58
2019-01-02T00:45:08.506Z,3.42
2019-01-02T00:47:37.653Z,2.90
2019-01-02T00:50:09.645Z,3.42
2019-01-02T00:52:38.739Z,3.40
2019-01-02T00:55:08.126Z,4.03
2019-01-02T00:57:37.180Z,2.27
2019-01-02T01:00:17.899Z,2.77
2019-01-02T01:02:46.651Z,3.67
2019-01-02T01:05:15.467Z,3.27
2019-01-02T01:07:44.616Z,4.08
2019-01-02T01:10:16.243Z,2.83
2019-01-02T01:12:45.465Z,2.90
2019-01-02T01:15:14.179Z,3.13
2019-01-02T01:17:43.228Z,4.20
2019-01-02T01:20:15.425Z,4.20
2019-01-02T01:22:44.213Z,4.10
2019-01-02T01:25:12.936Z,2.33
2019-01-02T01:27:41.687Z,3.20
2019-01-02T01:30:11.319Z,3.85
2019-01-02T01:32:40.075Z,3.65
2019-01-02T01:35:11.092Z,2.37
2019-01-02T01:37:42.943Z,3.47
2019-01-02T01:40:12.367Z,3.98
2019-01-02T01:42:41.128Z,4.67
2019-01-02T01:45:10.956Z,2.60
2019-01-02T01:47:39.714Z,2.85
2019-01-02T01:50:10.138Z,6.35
2019-01-02T01:52:38.887Z,5.42
2019-01-02T01:55:08.116Z,6.47
2019-01-02T01:57:37.268Z,3.90
2019-01-02T02:00:11.531Z,3.52
2019-01-02T02:02:40.287Z,4.72
2019-01-02T02:05:10.011Z,4.23
2019-01-02T02:07:38.764Z,4.08
2019-01-02T02:10:10.956Z,5.90
2019-01-02T02:12:39.785Z,6.70
2019-01-02T02:15:10.611Z,5.90
2019-01-02T02:17:41.113Z,6.20
2019-01-02T02:20:11.885Z,6.33
2019-01-02T02:22:40.711Z,5.95
2019-01-02T02:25:12.241Z,9.37
2019-01-02T02:27:40.991Z,6.58
2019-01-02T02:30:12.820Z,5.08
2019-01-02T02:32:42.084Z,5.42
2019-01-02T02:35:11.195Z,3.80
2019-01-02T02:37:39.984Z,4.78
2019-01-02T02:40:11.403Z,2.92
2019-01-02T02:42:40.162Z,3.60
2019-01-02T02:45:11.487Z,3.52
2019-01-02T02:47:40.539Z,4.78
2019-01-02T02:50:14.292Z,3.73
2019-01-02T02:52:43.160Z,4.30
2019-01-02T02:55:14.681Z,3.52
2019-01-02T02:57:43.437Z,3.67
2019-01-02T03:00:16.532Z,4.07
2019-01-02T03:02:45.284Z,4.20
2019-01-02T03:05:15.984Z,4.83
2019-01-02T03:07:45.136Z,3.52
2019-01-02T03:10:15.663Z,3.08
2019-01-02T03:12:44.720Z,2.65
2019-01-02T03:15:13.779Z,3.35
2019-01-02T03:17:42.534Z,3.67
2019-01-02T03:20:13.493Z,2.87
2019-01-02T03:22:42.522Z,2.77
2019-01-02T03:25:13.185Z,3.65
2019-01-02T03:27:42.215Z,4.10
2019-01-02T03:30:14.061Z,2.90
2019-01-02T03:32:43.248Z,4.37
2019-01-02T03:35:12.499Z,4.95
2019-01-02T03:37:41.232Z,3.80
2019-01-02T03:40:11.887Z,5.67
2019-01-02T03:42:40.616Z,6.35
2019-01-02T03:45:15.124Z,5.53
2019-01-02T03:47:43.856Z,8.83
2019-01-02T03:50:14.805Z,7.22
2019-01-02T03:52:43.536Z,6.10
2019-01-02T03:55:12.591Z,5.37
2019-01-02T03:57:43.231Z,5.75
2019-01-02T04:00:14.364Z,5.97
2019-01-02T04:02:43.200Z,5.12
2019-01-02T04:05:14.359Z,6.10
2019-01-02T04:07:45.383Z,5.25
2019-01-02T04:10:14.647Z,8.83
2019-01-02T04:12:43.371Z,7.50
2019-01-02T04:15:12.393Z,7.25
2019-01-02T04:17:41.143Z,7.53
2019-01-02T04:20:10.045Z,9.70
2019-01-02T04:22:38.766Z,10.48
2019-01-02T04:25:08.924Z,12.23
2019-01-02T04:27:37.659Z,9.40
2019-01-02T04:30:14.469Z,8.50
2019-01-02T04:32:44.352Z,8.58
2019-01-02T04:35:13.043Z,8.13
2019-01-02T04:37:41.764Z,8.80
2019-01-02T04:40:12.316Z,6.62
2019-01-02T04:42:41.052Z,8.50
2019-01-02T04:45:11.112Z,7.87
2019-01-02T04:47:40.145Z,6.40
2019-01-02T04:50:11.197Z,7.50
2019-01-02T04:52:39.924Z,9.15
2019-01-02T04:55:08.675Z,6.55
2019-01-02T04:57:37.401Z,6.17
2019-01-02T05:00:17.084Z,5.85
2019-01-02T05:02:45.913Z,7.65
2019-01-02T05:05:15.210Z,6.20
2019-01-02T05:07:43.954Z,6.27
2019-01-02T05:10:13.616Z,6.10
2019-01-02T05:12:42.343Z,8.08
2019-01-02T05:15:11.596Z,9.83
2019-01-02T05:17:40.324Z,7.10
2019-01-02T05:20:11.296Z,11.48
2019-01-02T05:22:40.091Z,6.90
2019-01-02T05:25:09.320Z,7.37
2019-01-02T05:27:38.036Z,6.33
2019-01-02T05:30:15.228Z,8.98
2019-01-02T05:32:43.960Z,7.37
2019-01-02T05:35:12.705Z,6.30
2019-01-02T05:37:41.488Z,6.75
2019-01-02T05:40:15.552Z,8.38
2019-01-02T05:42:44.284Z,8.18
2019-01-02T05:45:13.091Z,8.35
2019-01-02T05:47:41.804Z,10.78
2019-01-02T05:50:10.564Z,8.60
2019-01-02T05:52:39.299Z,12.73
2019-01-02T05:55:08.060Z,10.30
2019-01-02T05:57:36.803Z,9.08
2019-01-02T06:00:13.297Z,7.83
2019-01-02T06:02:42.055Z,10.28
2019-01-02T06:05:10.789Z,7.53
2019-01-02T06:07:39.536Z,9.73
2019-01-02T06:10:12.779Z,10.08
2019-01-02T06:12:41.544Z,9.78
2019-01-02T06:15:12.576Z,11.35
2019-01-02T06:17:41.344Z,16.42
2019-01-02T06:20:14.872Z,10.28
2019-01-02T06:22:43.632Z,11.53
2019-01-02T06:25:12.367Z,11.10
2019-01-02T06:27:41.109Z,11.00
2019-01-02T06:30:12.036Z,10.35
2019-01-02T06:32:40.882Z,10.53
2019-01-02T06:35:09.816Z,9.43
2019-01-02T06:37:38.573Z,11.63
2019-01-02T06:40:09.803Z,10.58
2019-01-02T06:42:38.568Z,10.65
2019-01-02T06:45:10.163Z,12.03
2019-01-02T06:47:39.229Z,12.30
2019-01-02T06:50:16.967Z,10.88
2019-01-02T06:52:45.996Z,12.15
2019-01-02T06:55:14.716Z,12.53
2019-01-02T06:57:43.539Z,11.80
2019-01-02T07:00:15.280Z,15.08
2019-01-02T07:02:45.448Z,12.87
2019-01-02T07:05:15.874Z,12.73
2019-01-02T07:07:45.186Z,13.83
2019-01-02T07:10:14.295Z,12.82
2019-01-02T07:12:43.030Z,14.15
2019-01-02T07:15:12.135Z,10.53
2019-01-02T07:17:42.428Z,14.15
2019-01-02T07:20:12.989Z,10.75
2019-01-02T07:22:41.752Z,11.08
2019-01-02T07:25:10.891Z,9.53
2019-01-02T07:27:41.660Z,13.28
2019-01-02T07:30:19.441Z,13.63
2019-01-02T07:32:49.658Z,15.90
2019-01-02T07:35:31.012Z,17.67
2019-01-02T07:38:33.684Z,11.90
2019-01-02T07:41:15.215Z,12.85
2019-01-02T07:43:53.392Z,12.60
2019-01-02T07:46:37.705Z,13.43
2019-01-02T07:49:16.208Z,13.65
2019-01-02T07:51:50.809Z,12.47
2019-01-02T07:54:31.627Z,13.43
2019-01-02T07:57:05.924Z,12.43
2019-01-02T08:00:00.284Z,13.13
2019-01-02T08:02:55.957Z,15.70
2019-01-02T08:05:45.344Z,13.10
2019-01-02T08:08:47.785Z,15.28
2019-01-02T08:11:25.698Z,14.95
2019-01-02T08:14:00.921Z,15.35
2019-01-02T08:16:44.633Z,12.82
2019-01-02T08:19:22.027Z,13.55
2019-01-02T08:22:02.499Z,12.37
2019-01-02T08:24:40.036Z,16.80
2019-01-02T08:27:20.665Z,15.43
2019-01-02T08:30:12.464Z,16.17
2019-01-02T08:32:52.728Z,16.40
2019-01-02T08:35:39.629Z,16.33
2019-01-02T08:38:32.588Z,17.73
2019-01-02T08:41:28.541Z,19.50
2019-01-02T08:44:21.634Z,16.50
2019-01-02T08:47:14.013Z,21.30
2019-01-02T08:50:00.534Z,20.08
2019-01-02T08:52:37.946Z,17.95
2019-01-02T08:55:33.574Z,18.00
2019-01-02T08:58:32.439Z,20.30
2019-01-02T09:01:28.422Z,14.18
2019-01-02T09:04:20.919Z,18.92
2019-01-02T09:06:55.238Z,18.52
2019-01-02T09:10:00.289Z,16.42
2019-01-02T09:12:47.472Z,15.95
2019-01-02T09:15:25.875Z,19.35
2019-01-02T09:18:06.712Z,15.75
2019-01-02T09:21:00.736Z,18.73
2019-01-02T09:23:49.268Z,17.82
2019-01-02T09:26:35.931Z,19.32
2019-01-02T09:29:10.387Z,14.85
2019-01-02T09:31:51.150Z,16.70
2019-01-02T09:34:37.714Z,17.45
2019-01-02T09:37:33.576Z,16.20
2019-01-02T09:40:20.366Z,14.73
2019-01-02T09:43:16.411Z,16.20
2019-01-02T09:46:05.816Z,14.90
2019-01-02T09:49:07.886Z,15.58
2019-01-02T09:52:05.500Z,14.28
2019-01-02T09:55:01.563Z,16.37
2019-01-02T09:57:38.503Z,16.75
2019-01-02T10:00:45.284Z,17.52
2019-01-02T10:03:34.760Z,17.70
2019-01-02T10:06:30.644Z,15.23
2019-01-02T10:09:23.111Z,14.43
2019-01-02T10:12:10.261Z,16.75
2019-01-02T10:14:58.934Z,15.75
2019-01-02T10:17:45.819Z,19.75
2019-01-02T10:20:17.531Z,15.95
2019-01-02T10:22:52.232Z,18.20
2019-01-02T10:25:46.996Z,16.90
2019-01-02T10:28:43.255Z,19.75
2019-01-02T10:31:49.002Z,16.48
2019-01-02T10:34:28.114Z,17.80
2019-01-02T10:37:18.329Z,17.82
2019-01-02T10:40:06.214Z,17.62
2019-01-02T10:42:52.904Z,16.43
2019-01-02T10:45:36.968Z,17.45
2019-01-02T10:48:20.665Z,15.73
2019-01-02T10:51:07.619Z,16.42
2019-01-02T10:53:57.780Z,16.25
2019-01-02T10:56:38.109Z,13.03
2019-01-02T10:59:18.515Z,14.25
2019-01-02T11:02:17.780Z,10.78
2019-01-02T11:05:04.620Z,14.68
2019-01-02T11:07:45.616Z,13.88
2019-01-02T11:10:38.271Z,16.45
2019-01-02T11:13:18.687Z,20.68
2019-01-02T11:15:53.204Z,14.68
2019-01-02T11:18:40.176Z,16.55
2019-01-02T11:21:28.396Z,15.00
2019-01-02T11:24:16.970Z,13.30
2019-01-02T11:27:11.320Z,18.57
2019-01-02T11:29:43.011Z,16.53
2019-01-02T11:32:32.833Z,17.37
2019-01-02T11:35:26.928Z,19.55
2019-01-02T11:38:10.784Z,17.30
2019-01-02T11:41:03.924Z,16.70
2019-01-02T11:44:08.952Z,14.50
2019-01-02T11:46:37.679Z,18.55
2019-01-02T11:49:06.512Z,14.60
2019-01-02T11:51:35.240Z,17.98
2019-01-02T11:54:04.064Z,17.02
2019-01-02T11:56:32.868Z,20.50
2019-01-02T11:59:01.635Z,11.78
2019-01-02T12:01:30.368Z,14.53
2019-01-02T12:03:59.096Z,16.45
2019-01-02T12:06:27.879Z,14.50
2019-01-02T12:08:56.616Z,18.02
2019-01-02T12:11:25.368Z,13.50
2019-01-02T12:13:54.119Z,14.03
2019-01-02T12:16:22.872Z,14.63
2019-01-02T12:18:51.832Z,13.30
2019-01-02T12:21:20.593Z,14.18
2019-01-02T12:23:49.416Z,14.35
2019-01-02T12:26:18.807Z,14.63
2019-01-02T12:28:47.757Z,17.77
2019-01-02T12:31:17.307Z,15.75
2019-01-02T12:33:46.771Z,13.48
2019-01-02T12:36:15.575Z,17.75
2019-01-02T12:38:44.287Z,15.18
2019-01-02T12:41:13.043Z,12.18
2019-01-02T12:43:42.692Z,13.78
2019-01-02T12:46:11.422Z,16.87
2019-01-02T12:48:40.194Z,14.90
2019-01-02T12:51:08.908Z,16.02
2019-01-02T12:53:43.529Z,13.50
2019-01-02T12:56:08.428Z,11.10
2019-01-02T12:58:37.416Z,13.08
2019-01-02T13:01:06.160Z,13.28
2019-01-02T13:03:49.632Z,17.92
2019-01-02T13:06:41.215Z,14.30
2019-01-02T13:09:31.226Z,17.35
2019-01-02T13:12:05.827Z,15.50
2019-01-02T13:14:55.578Z,15.40
2019-01-02T13:17:30.205Z,20.25
2019-01-02T13:20:22.909Z,18.25
2019-01-02T13:23:03.691Z,21.00
2019-01-02T13:25:56.880Z,20.37
2019-01-02T13:28:28.596Z,17.57
2019-01-02T13:31:06.248Z,19.02
2019-01-02T13:33:49.887Z,16.30
2019-01-02T13:36:24.391Z,20.55
2019-01-02T13:38:56.099Z,20.75
2019-01-02T13:41:36.971Z,15.78
2019-01-02T13:44:14.288Z,16.93
2019-01-02T13:47:02.496Z,11.35
2019-01-02T13:49:55.345Z,11.83
2019-01-02T13:52:25.659Z,10.63
2019-01-02T13:54:57.306Z,12.78
2019-01-02T13:57:27.022Z,13.70
2019-01-02T13:59:55.744Z,14.20
2019-01-02T14:02:24.607Z,11.28
2019-01-02T14:04:53.559Z,10.32
2019-01-02T14:07:22.397Z,11.40
2019-01-02T14:09:51.500Z,8.23
2019-01-02T14:12:20.347Z,7.30
2019-01-02T14:14:49.111Z,9.48
2019-01-02T14:17:17.854Z,6.03
2019-01-02T14:19:46.599Z,7.60
2019-01-02T14:22:15.332Z,6.45
2019-01-02T14:24:45.239Z,5.28
2019-01-02T14:27:13.984Z,7.65
2019-01-02T14:29:42.734Z,6.12
2019-01-02T14:32:11.947Z,7.85
2019-01-02T14:34:40.793Z,8.75
2019-01-02T14:37:10.005Z,8.63
2019-01-02T14:39:39.090Z,6.47
2019-01-02T14:42:07.884Z,8.08
2019-01-02T14:44:38.331Z,6.85
2019-01-02T14:47:07.070Z,10.25
2019-01-02T14:49:36.054Z,10.88
2019-01-02T14:52:04.776Z,8.98
2019-01-02T14:54:33.603Z,8.40
2019-01-02T14:57:02.323Z,8.67
2019-01-02T14:59:31.177Z,9.18
2019-01-02T15:01:59.925Z,8.00
2019-01-02T15:04:29.119Z,10.25
2019-01-02T15:06:58.064Z,12.60
2019-01-02T15:09:27.032Z,9.35
2019-01-02T15:11:55.919Z,10.68
2019-01-02T15:14:24.687Z,10.95
2019-01-02T15:16:53.443Z,10.27
2019-01-02T15:19:22.176Z,11.60
2019-01-02T15:21:51.011Z,11.28
2019-01-02T15:24:20.425Z,10.98
2019-01-02T15:26:49.213Z,9.35
2019-01-02T15:29:17.929Z,9.58
2019-01-02T15:31:46.683Z,11.10
2019-01-02T15:34:15.488Z,10.15
2019-01-02T15:36:44.235Z,8.38
2019-01-02T15:39:12.958Z,10.60
2019-01-02T15:41:41.703Z,9.13
2019-01-02T15:44:10.895Z,9.58
2019-01-02T15:46:39.623Z,6.78
2019-01-02T15:49:08.343Z,10.63
2019-01-02T15:51:37.102Z,5.05
2019-01-02T15:54:05.828Z,6.33
2019-01-02T15:56:34.750Z,8.27
2019-01-02T15:59:03.558Z,6.85
2019-01-02T16:01:32.369Z,9.38
2019-01-02T16:04:01.086Z,8.85
2019-01-02T16:06:29.840Z,7.72
2019-01-02T16:08:58.587Z,6.67
2019-01-02T16:11:27.319Z,6.10
2019-01-02T16:13:56.155Z,5.97
2019-01-02T16:16:24.902Z,5.28
2019-01-02T16:18:53.772Z,7.20
2019-01-02T16:21:22.908Z,7.30
2019-01-02T16:23:51.735Z,7.83
2019-01-02T16:26:20.852Z,7.47
2019-01-02T16:28:51.763Z,8.00
2019-01-02T16:31:20.669Z,8.50
2019-01-02T16:34:08.781Z,8.00
2019-01-02T16:36:37.543Z,8.23
2019-01-02T16:39:07.991Z,7.85
2019-01-02T16:41:38.693Z,7.33
2019-01-02T16:44:07.450Z,6.22
2019-01-02T16:46:37.899Z,6.37
2019-01-02T16:49:06.720Z,5.50
2019-01-02T16:51:35.447Z,7.83
2019-01-02T16:54:04.199Z,7.85
2019-01-02T16:56:32.928Z,7.62
2019-01-02T16:59:01.682Z,7.33
2019-01-02T17:01:30.400Z,7.07
2019-01-02T17:03:59.168Z,9.63
2019-01-02T17:06:28.000Z,7.72
2019-01-02T17:08:56.755Z,6.17
2019-01-02T17:11:25.479Z,7.60
2019-01-02T17:13:54.299Z,6.20
2019-01-02T17:16:23.027Z,7.28
2019-01-02T17:18:51.788Z,7.87
2019-01-02T17:21:20.624Z,8.63
2019-01-02T17:23:49.371Z,8.40
2019-01-02T17:26:18.168Z,9.90
2019-01-02T17:28:46.925Z,7.12
2019-01-02T17:31:15.647Z,9.98
2019-01-02T17:33:44.415Z,8.38
2019-01-02T17:36:13.152Z,10.63
2019-01-02T17:38:41.908Z,8.73
2019-01-02T17:41:10.668Z,8.83
2019-01-02T17:43:39.400Z,5.30
2019-01-02T17:46:08.159Z,8.43
2019-01-02T17:48:36.925Z,8.53
2019-01-02T17:51:05.647Z,8.68
2019-01-02T17:53:34.407Z,7.60
2019-01-02T17:56:03.205Z,9.18
2019-01-02T17:58:31.968Z,11.20
2019-01-02T18:01:00.699Z,8.73
2019-01-02T18:03:29.429Z,8.75
2019-01-02T18:05:58.193Z,8.95
2019-01-02T18:08:26.971Z,8.88
2019-01-02T18:10:55.724Z,8.90
2019-01-02T18:13:24.524Z,9.58
2019-01-02T18:15:53.380Z,7.28
2019-01-02T18:18:22.120Z,7.08
2019-01-02T18:20:50.948Z,8.15
2019-01-02T18:23:19.683Z,10.88
2019-01-02T18:25:48.440Z,9.70
2019-01-02T18:28:17.171Z,8.25
2019-01-02T18:30:45.940Z,9.28
2019-01-02T18:33:14.672Z,7.95
2019-01-02T18:35:43.427Z,9.23
2019-01-02T18:38:12.151Z,8.33
2019-01-02T18:40:40.913Z,7.20
2019-01-02T18:43:09.636Z,7.10
2019-01-02T18:45:38.400Z,8.75
2019-01-02T18:48:07.191Z,8.25
2019-01-02T18:50:35.950Z,7.72
2019-01-02T18:53:04.682Z,9.00
2019-01-02T18:55:33.499Z,7.22
2019-01-02T18:58:02.405Z,7.47
2019-01-02T19:00:31.240Z,10.05
2019-01-02T19:02:59.968Z,9.48
2019-01-02T19:05:28.935Z,9.83
2019-01-02T19:07:57.645Z,8.43
2019-01-02T19:10:26.391Z,7.62
2019-01-02T19:12:55.160Z,9.10
2019-01-02T19:15:23.894Z,8.93
2019-01-02T19:17:52.644Z,8.43
2019-01-02T19:20:21.428Z,9.53
2019-01-02T19:22:50.184Z,6.25
2019-01-02T19:25:18.920Z,12.53
2019-01-02T19:27:47.668Z,9.55
2019-01-02T19:30:16.400Z,8.35
2019-01-02T19:32:45.155Z,9.90
2019-01-02T19:35:13.888Z,8.80
2019-01-02T19:37:42.648Z,10.63
2019-01-02T19:40:11.376Z,9.45
2019-01-02T19:42:40.132Z,7.90
2019-01-02T19:45:09.260Z,10.32
2019-01-02T19:47:38.024Z,7.80
2019-01-02T19:50:08.447Z,7.58
2019-01-02T19:52:37.204Z,7.90
2019-01-02T19:55:07.555Z,7.25
2019-01-02T19:57:36.284Z,8.83
2019-01-02T20:00:08.176Z,7.12
2019-01-02T20:02:37.404Z,6.60
2019-01-02T20:05:06.272Z,8.10
2019-01-02T20:07:35.067Z,8.17
2019-01-02T20:10:04.447Z,7.53
2019-01-02T20:12:33.168Z,7.12
2019-01-02T20:15:01.920Z,10.58
2019-01-02T20:17:30.711Z,8.48
2019-01-02T20:19:59.537Z,7.83
2019-01-02T20:22:28.264Z,5.78
2019-01-02T20:24:57.023Z,9.30
2019-01-02T20:27:25.755Z,7.83
2019-01-02T20:29:54.524Z,7.92
2019-01-02T20:32:23.249Z,6.67
2019-01-02T20:34:52.002Z,7.58
2019-01-02T20:37:20.753Z,8.00
2019-01-02T20:39:49.481Z,7.55
2019-01-02T20:42:18.242Z,6.90
2019-01-02T20:44:46.972Z,8.08
2019-01-02T20:47:15.726Z,10.15
2019-01-02T20:49:44.464Z,6.70
2019-01-02T20:52:13.223Z,9.35
2019-01-02T20:54:41.947Z,8.10
2019-01-02T20:57:10.708Z,7.53
2019-01-02T20:59:39.444Z,7.87
2019-01-02T21:02:08.347Z,8.50
2019-01-02T21:04:37.044Z,6.40
2019-01-02T21:07:05.794Z,7.30
2019-01-02T21:09:34.532Z,6.28
2019-01-02T21:12:03.333Z,7.17
2019-01-02T21:14:32.156Z,5.60
2019-01-02T21:17:00.888Z,8.68
2019-01-02T21:19:29.697Z,8.50
2019-01-02T21:21:58.376Z,9.23
2019-01-02T21:24:27.143Z,11.10
2019-01-02T21:26:55.872Z,7.72
2019-01-02T21:29:24.630Z,8.28
2019-01-02T21:31:53.952Z,9.30
2019-01-02T21:34:22.811Z,8.67
2019-01-02T21:36:51.553Z,9.80
2019-01-02T21:39:20.316Z,7.40
2019-01-02T21:41:49.054Z,7.85
2019-01-02T21:44:17.806Z,11.00
2019-01-02T21:46:46.528Z,9.27
2019-01-02T21:49:15.368Z,7.53
2019-01-02T21:51:44.095Z,8.38
2019-01-02T21:54:12.864Z,9.98
2019-01-02T21:56:41.597Z,9.55
2019-01-02T21:59:10.348Z,9.80
2019-01-02T22:01:39.453Z,8.70
2019-01-02T22:04:08.208Z,8.80
2019-01-02T22:06:36.944Z,8.05
2019-01-02T22:09:06.588Z,7.90
2019-01-02T22:11:35.316Z,9.30
2019-01-02T22:14:04.078Z,6.80
2019-01-02T22:16:32.804Z,9.45
2019-01-02T22:19:01.572Z,10.15
2019-01-02T22:21:30.368Z,7.83
2019-01-02T22:23:59.234Z,10.28
2019-01-02T22:26:27.956Z,9.20
2019-01-02T22:28:56.711Z,9.73
2019-01-02T22:31:25.548Z,10.68
2019-01-02T22:33:54.310Z,10.65
2019-01-02T22:36:23.052Z,8.08
2019-01-02T22:38:51.804Z,8.65
2019-01-02T22:41:20.523Z,6.63
2019-01-02T22:43:49.284Z,7.65
2019-01-02T22:46:18.011Z,7.10
2019-01-02T22:48:46.784Z,7.10
2019-01-02T22:51:15.508Z,8.13
2019-01-02T22:53:44.269Z,7.93
2019-01-02T22:56:13.025Z,5.80
2019-01-02T22:58:41.748Z,7.53
2019-01-02T23:01:12.147Z,6.25
2019-01-02T23:03:45.039Z,8.80
2019-01-02T23:06:18.232Z,5.87
2019-01-02T23:09:04.856Z,7.37
2019-01-02T23:11:47.223Z,7.50
2019-01-02T23:14:33.808Z,5.20
2019-01-02T23:17:07.156Z,6.62
2019-01-02T23:19:37.519Z,5.00
2019-01-02T23:22:25.995Z,4.20
2019-01-02T23:25:12.569Z,4.05
2019-01-02T23:27:51.840Z,5.55
2019-01-02T23:30:34.466Z,5.00
2019-01-02T23:33:04.856Z,4.53
2019-01-02T23:35:47.279Z,5.00
2019-01-02T23:38:36.053Z,4.67
2019-01-02T23:41:22.912Z,6.20
2019-01-02T23:43:53.311Z,4.47
2019-01-02T23:46:40.189Z,5.55
2019-01-02T23:49:25.889Z,5.78
2019-01-02T23:51:59.220Z,4.78
2019-01-02T23:54:47.808Z,5.35
2019-01-02T23:57:21.283Z,5.17
2019-01-02T23:59:51.691Z,5.17
